createdAt,value
2022-07-31T00:02:46.420Z,17.67
2022-07-31T00:07:48.193Z,17.52
2022-07-31T00:12:49.970Z,17.39
2022-07-31T00:17:52.359Z,17.27
2022-07-31T00:22:54.644Z,17.15
2022-07-31T00:27:56.419Z,17.03
2022-07-31T00:32:58.198Z,16.92
2022-07-31T00:38:25.603Z,16.81
2022-07-31T00:43:21.932Z,16.71
2022-07-31T00:48:23.906Z,16.62
2022-07-31T00:53:25.874Z,16.54
2022-07-31T00:58:27.754Z,16.45
2022-07-31T01:03:30.552Z,16.37
2022-07-31T01:08:32.429Z,16.29
2022-07-31T01:13:46.182Z,16.21
2022-07-31T01:18:48.880Z,16.12
2022-07-31T01:24:08.373Z,16.03
2022-07-31T01:29:13.320Z,15.97
2022-07-31T01:34:37.009Z,15.93
2022-07-31T01:39:42.774Z,15.87
2022-07-31T01:44:45.677Z,15.81
2022-07-31T01:49:49.193Z,15.74
2022-07-31T01:54:52.912Z,15.67
2022-07-31T01:59:56.734Z,15.62
2022-07-31T02:04:58.920Z,15.56
2022-07-31T02:10:00.900Z,15.50
2022-07-31T02:15:06.054Z,15.47
2022-07-31T02:20:09.669Z,15.42
2022-07-31T02:25:11.551Z,15.39
2022-07-31T02:30:13.527Z,15.35
2022-07-31T02:35:16.940Z,15.32
2022-07-31T02:40:19.330Z,15.28
2022-07-31T02:45:22.128Z,15.26
2022-07-31T02:50:24.624Z,15.24
2022-07-31T02:55:27.214Z,15.21
2022-07-31T03:00:30.500Z,15.17
2022-07-31T03:05:32.297Z,15.16
2022-07-31T03:10:34.073Z,15.13
2022-07-31T03:15:36.054Z,15.11
2022-07-31T03:20:39.160Z,15.07
2022-07-31T03:25:41.138Z,15.04
2022-07-31T03:30:42.912Z,15.00
2022-07-31T03:35:44.859Z,14.97
2022-07-31T03:40:47.281Z,14.92
2022-07-31T03:45:52.024Z,14.91
2022-07-31T03:50:53.799Z,14.91
2022-07-31T03:55:56.609Z,14.93
2022-07-31T04:00:58.986Z,14.96
2022-07-31T04:06:01.073Z,14.98
2022-07-31T04:11:02.843Z,15.01
2022-07-31T04:16:04.721Z,15.05
2022-07-31T04:21:06.497Z,15.07
2022-07-31T04:26:08.371Z,15.09
2022-07-31T04:31:10.146Z,15.11
2022-07-31T04:36:29.441Z,15.13
2022-07-31T04:41:32.025Z,15.15
2022-07-31T04:46:34.006Z,15.16
2022-07-31T04:51:35.778Z,15.18
2022-07-31T04:56:41.756Z,15.20
2022-07-31T05:01:44.829Z,15.23
2022-07-31T05:06:47.965Z,15.26
2022-07-31T05:11:50.353Z,15.28
2022-07-31T05:16:52.128Z,15.32
2022-07-31T05:21:56.313Z,15.37
2022-07-31T05:26:59.057Z,15.43
2022-07-31T05:32:01.550Z,15.47
2022-07-31T05:37:03.872Z,15.52
2022-07-31T05:42:06.144Z,15.57
2022-07-31T05:47:08.510Z,15.61
2022-07-31T05:52:10.594Z,15.64
2022-07-31T05:57:12.570Z,15.69
2022-07-31T06:02:34.832Z,15.81
2022-07-31T06:07:36.808Z,15.91
2022-07-31T06:12:38.580Z,15.97
2022-07-31T06:17:43.831Z,16.03
2022-07-31T06:22:46.638Z,16.13
2022-07-31T06:27:56.498Z,16.23
2022-07-31T06:33:08.060Z,16.36
2022-07-31T06:38:10.492Z,16.45
2022-07-31T06:43:12.891Z,16.50
2022-07-31T06:48:14.859Z,16.56
2022-07-31T06:53:16.963Z,16.60
2022-07-31T06:58:19.225Z,16.58
2022-07-31T07:03:21.163Z,16.58
2022-07-31T07:08:22.985Z,16.61
2022-07-31T07:13:26.009Z,16.66
2022-07-31T07:18:47.832Z,16.66
2022-07-31T07:23:49.541Z,16.72
2022-07-31T07:28:51.279Z,16.82
2022-07-31T07:33:53.056Z,16.95
2022-07-31T07:38:55.788Z,17.03
2022-07-31T07:43:58.139Z,17.17
2022-07-31T07:49:00.403Z,17.16
2022-07-31T07:54:02.306Z,17.02
2022-07-31T07:59:04.383Z,16.88
2022-07-31T08:04:06.160Z,16.70
2022-07-31T08:09:08.702Z,16.66
2022-07-31T08:14:10.532Z,16.81
2022-07-31T08:19:17.012Z,17.02
2022-07-31T08:24:18.786Z,17.22
2022-07-31T08:29:26.509Z,17.33
2022-07-31T08:34:31.877Z,17.35
2022-07-31T08:39:34.456Z,17.27
2022-07-31T08:44:36.753Z,17.02
2022-07-31T08:49:49.617Z,16.77
2022-07-31T08:54:52.888Z,16.61
2022-07-31T08:59:55.068Z,16.56
2022-07-31T09:04:56.841Z,16.64
2022-07-31T09:09:58.720Z,16.69
2022-07-31T09:15:00.491Z,16.73
2022-07-31T09:20:05.511Z,16.90
2022-07-31T09:25:11.830Z,16.99
2022-07-31T09:30:15.411Z,17.04
2022-07-31T09:35:17.322Z,17.02
2022-07-31T09:40:21.191Z,16.93
2022-07-31T09:45:23.982Z,16.81
2022-07-31T09:50:26.740Z,16.79
2022-07-31T09:55:29.036Z,16.90
2022-07-31T10:00:31.570Z,17.08
2022-07-31T10:05:34.213Z,17.10
2022-07-31T10:10:37.012Z,17.11
2022-07-31T10:15:39.503Z,17.19
2022-07-31T10:20:43.942Z,17.39
2022-07-31T10:25:53.486Z,17.66
2022-07-31T10:30:56.606Z,17.81
2022-07-31T10:36:04.932Z,17.79
2022-07-31T10:41:15.420Z,17.68
2022-07-31T10:46:28.257Z,17.54
2022-07-31T10:51:31.161Z,17.55
2022-07-31T10:56:47.153Z,17.61
2022-07-31T11:01:52.995Z,17.61
2022-07-31T11:06:55.620Z,17.48
2022-07-31T11:11:57.601Z,17.38
2022-07-31T11:16:59.683Z,17.32
2022-07-31T11:22:30.561Z,17.34
2022-07-31T11:27:31.187Z,17.54
2022-07-31T11:32:34.902Z,17.83
2022-07-31T11:37:56.961Z,18.09
2022-07-31T11:43:23.535Z,18.38
2022-07-31T11:48:26.506Z,18.48
2022-07-31T11:53:29.268Z,18.40
2022-07-31T11:58:31.084Z,18.17
2022-07-31T12:03:36.687Z,17.90
2022-07-31T12:08:39.762Z,17.70
2022-07-31T12:13:44.504Z,17.60
2022-07-31T12:18:48.425Z,17.49
2022-07-31T12:23:55.215Z,17.52
2022-07-31T12:28:57.296Z,17.48
2022-07-31T12:33:59.195Z,17.38
2022-07-31T12:39:02.817Z,17.27
2022-07-31T12:44:09.586Z,17.20
2022-07-31T12:49:11.357Z,17.14
2022-07-31T12:54:17.639Z,17.19
2022-07-31T12:59:19.520Z,17.29
2022-07-31T13:04:21.804Z,17.56
2022-07-31T13:09:23.579Z,17.74
2022-07-31T13:14:25.462Z,17.80
2022-07-31T13:19:28.375Z,17.77
2022-07-31T13:24:31.058Z,17.79
2022-07-31T13:29:33.039Z,17.81
2022-07-31T13:34:35.027Z,17.77
2022-07-31T13:39:37.503Z,17.79
2022-07-31T13:44:39.582Z,17.74
2022-07-31T13:49:41.308Z,17.65
2022-07-31T13:54:43.247Z,17.59
2022-07-31T13:59:45.009Z,17.57
2022-07-31T14:04:47.498Z,17.52
2022-07-31T14:09:55.189Z,17.48
2022-07-31T14:14:57.609Z,17.42
2022-07-31T14:20:00.107Z,17.33
2022-07-31T14:25:02.078Z,17.21
2022-07-31T14:30:08.458Z,17.12
2022-07-31T14:35:11.313Z,17.10
2022-07-31T14:40:14.657Z,17.05
2022-07-31T14:45:16.660Z,17.02
2022-07-31T14:50:19.681Z,17.00
2022-07-31T14:55:25.028Z,17.01
2022-07-31T15:00:26.989Z,17.03
2022-07-31T15:06:41.397Z,17.01
2022-07-31T15:10:51.432Z,16.97
2022-07-31T15:15:53.727Z,16.98
2022-07-31T15:20:56.730Z,17.02
2022-07-31T15:25:59.316Z,17.14
2022-07-31T15:31:02.628Z,17.29
2022-07-31T15:36:05.055Z,17.36
2022-07-31T15:41:07.240Z,17.39
2022-07-31T15:46:10.202Z,17.41
2022-07-31T15:51:12.291Z,17.41
2022-07-31T15:56:14.159Z,17.42
2022-07-31T16:01:17.195Z,17.37
2022-07-31T16:06:20.584Z,17.30
2022-07-31T16:12:04.229Z,17.24
2022-07-31T16:16:53.412Z,17.16
2022-07-31T16:22:00.367Z,17.09
2022-07-31T16:27:03.024Z,17.03
2022-07-31T16:32:05.521Z,16.96
2022-07-31T16:37:08.016Z,16.91
2022-07-31T16:42:10.278Z,16.84
2022-07-31T16:47:14.610Z,16.80
2022-07-31T16:52:16.998Z,16.80
2022-07-31T16:57:20.922Z,16.89
2022-07-31T17:02:24.334Z,16.99
2022-07-31T17:07:28.207Z,17.05
2022-07-31T17:12:30.137Z,17.11
2022-07-31T17:17:32.219Z,17.15
2022-07-31T17:22:37.694Z,17.14
2022-07-31T17:27:41.911Z,17.12
2022-07-31T17:32:43.895Z,17.05
2022-07-31T17:37:45.765Z,16.95
2022-07-31T17:42:48.168Z,16.86
2022-07-31T17:48:01.157Z,16.80
2022-07-31T17:53:07.066Z,16.73
2022-07-31T17:58:12.547Z,16.70
2022-07-31T18:03:17.371Z,16.67
2022-07-31T18:08:19.252Z,16.67
2022-07-31T18:13:21.396Z,16.66
2022-07-31T18:18:23.338Z,16.63
2022-07-31T18:23:29.384Z,16.61
2022-07-31T18:28:34.034Z,16.57
2022-07-31T18:33:37.195Z,16.54
2022-07-31T18:38:39.216Z,16.49
2022-07-31T18:43:41.193Z,16.46
2022-07-31T18:48:44.205Z,16.43
2022-07-31T18:53:46.452Z,16.36
2022-07-31T18:58:49.505Z,16.28
2022-07-31T19:03:51.937Z,16.19
2022-07-31T19:08:56.211Z,16.10
2022-07-31T19:13:58.255Z,16.01
2022-07-31T19:19:00.796Z,15.93
2022-07-31T19:24:02.970Z,15.87
2022-07-31T19:34:23.650Z,15.80
2022-07-31T19:39:25.804Z,15.81
2022-07-31T19:44:29.304Z,15.83
2022-07-31T19:49:36.539Z,15.83
2022-07-31T19:54:41.904Z,15.78
2022-07-31T19:59:45.606Z,15.71
2022-07-31T20:04:51.269Z,15.62
2022-07-31T20:09:54.891Z,15.53
2022-07-31T20:14:57.170Z,15.43
2022-07-31T20:20:01.631Z,15.35
2022-07-31T20:25:19.794Z,15.25
2022-07-31T20:30:23.381Z,15.14
2022-07-31T20:35:47.218Z,15.03
2022-07-31T20:40:54.139Z,14.92
2022-07-31T20:45:59.760Z,14.82
2022-07-31T20:51:03.044Z,14.73
2022-07-31T20:56:05.138Z,14.64
2022-07-31T21:01:07.561Z,14.56
2022-07-31T21:06:09.336Z,14.47
2022-07-31T21:11:11.169Z,14.37
2022-07-31T21:16:13.254Z,14.27
2022-07-31T21:21:15.125Z,14.20
2022-07-31T21:26:17.112Z,14.14
2022-07-31T21:31:19.187Z,14.08
2022-07-31T21:36:21.372Z,14.01
2022-07-31T21:41:24.270Z,13.96
2022-07-31T21:46:27.784Z,13.92
2022-07-31T21:51:30.380Z,13.87
2022-07-31T21:56:32.281Z,13.83
2022-07-31T22:01:34.567Z,13.79
2022-07-31T22:06:55.075Z,13.73
2022-07-31T22:12:01.659Z,13.69
2022-07-31T22:17:06.900Z,13.64
2022-07-31T22:22:14.512Z,13.60
2022-07-31T22:27:35.030Z,13.57
2022-07-31T22:32:37.927Z,13.53
2022-07-31T22:37:40.420Z,13.50
2022-07-31T22:42:42.505Z,13.46
2022-07-31T22:47:58.205Z,13.44
2022-07-31T22:52:59.982Z,13.41
2022-07-31T22:58:01.752Z,13.37
2022-07-31T23:03:03.730Z,13.30
2022-07-31T23:08:05.504Z,13.24
2022-07-31T23:13:07.277Z,13.18
2022-07-31T23:18:09.156Z,13.12
2022-07-31T23:23:10.828Z,13.08
2022-07-31T23:28:12.604Z,13.03
2022-07-31T23:33:16.119Z,13.00
2022-07-31T23:38:18.813Z,12.93
2022-07-31T23:43:21.101Z,12.86
2022-07-31T23:48:23.284Z,12.75
2022-07-31T23:53:31.204Z,12.65
2022-07-31T23:58:32.979Z,12.57
